Time;durP1;ratioP1;P1;durP2;ratioP2;P2;SDS_P1;SDS_P2;PMS_P1;PMS_P2;Temp;Humidity;BMP_temperature;BMP_pressure;BME280_temperature;BME280_humidity;BME280_pressure;Samples;Min_cycle;Max_cycle;Signal;HPM_P1;HPM_P2
2023/07/13 00:01:30;;;;;;;1.17;1.10;;;;;;;25.68;47.90;97340.47;4994413;28;20697;-28
2023/07/13 00:03:57;;;;;;;1.27;1.17;;;;;;;25.67;48.01;97351.63;4991414;28;20230;-29
2023/07/13 00:06:23;;;;;;;1.23;1.10;;;;;;;25.67;48.00;97356.78;4976609;28;20219;-28
2023/07/13 00:08:50;;;;;;;1.05;1.05;;;;;;;25.65;48.10;97363.63;4990985;28;20207;-28
2023/07/13 00:11:17;;;;;;;1.30;1.20;;;;;;;25.67;47.85;97365.38;4994004;28;20741;-30
2023/07/13 00:13:43;;;;;;;1.23;1.13;;;;;;;25.66;48.24;97373.06;4993794;28;20207;-30
2023/07/13 00:16:10;;;;;;;1.08;1.08;;;;;;;25.67;48.12;97374.81;4993723;28;20227;-29
2023/07/13 00:18:38;;;;;;;1.30;1.20;;;;;;;25.63;47.78;97370.44;4994676;28;20257;-28
2023/07/13 00:21:04;;;;;;;0.90;0.90;;;;;;;25.65;47.99;97372.22;4991636;28;20199;-29
2023/07/13 00:23:35;;;;;;;1.15;1.10;;;;;;;25.67;48.11;97372.22;4992903;28;20203;-28
2023/07/13 00:26:02;;;;;;;1.17;1.10;;;;;;;25.65;48.13;97371.34;4994490;28;20293;-28
2023/07/13 00:28:29;;;;;;;1.10;1.10;;;;;;;25.66;48.10;97361.06;4992378;28;20203;-29
2023/07/13 00:30:56;;;;;;;1.30;1.20;;;;;;;25.66;47.92;97358.50;4992336;28;20227;-28
2023/07/13 00:33:22;;;;;;;1.00;1.00;;;;;;;25.67;48.34;97364.50;4993241;28;20206;-29
2023/07/13 00:35:49;;;;;;;1.30;1.20;;;;;;;25.66;48.10;97355.03;4988194;28;20227;-28
2023/07/13 00:38:16;;;;;;;1.00;1.00;;;;;;;25.65;48.07;97359.34;4994451;28;20529;-28
2023/07/13 00:40:43;;;;;;;1.10;1.10;;;;;;;25.64;48.02;97351.59;4986416;28;20223;-28
2023/07/13 00:43:15;;;;;;;1.00;1.00;;;;;;;25.65;47.86;97343.03;4986525;28;20217;-28
2023/07/13 00:45:45;;;;;;;1.30;1.20;;;;;;;25.66;47.86;97343.03;4985835;28;20589;-28
2023/07/13 00:48:14;;;;;;;1.15;1.08;;;;;;;25.62;48.20;97341.31;4992612;28;20218;-29
2023/07/13 00:50:40;;;;;;;1.02;1.02;;;;;;;25.64;48.08;97349.03;4990885;28;20215;-29
2023/07/13 00:53:07;;;;;;;1.10;1.10;;;;;;;25.66;48.06;97350.75;4964417;28;20631;-28
2023/07/13 00:55:34;;;;;;;1.10;1.00;;;;;;;25.63;48.04;97347.28;4976479;28;20315;-29
2023/07/13 00:58:02;;;;;;;1.10;1.10;;;;;;;25.65;48.39;97346.47;4990101;28;20199;-28
2023/07/13 01:00:29;;;;;;;1.00;1.00;;;;;;;25.64;48.05;97349.88;4974928;28;20207;-28
2023/07/13 01:02:55;;;;;;;1.00;1.00;;;;;;;25.64;48.08;97355.03;4975057;28;20253;-29
2023/07/13 01:05:22;;;;;;;1.23;1.20;;;;;;;25.65;48.48;97358.47;4968459;28;20841;-29
2023/07/13 01:07:50;;;;;;;1.00;1.00;;;;;;;25.62;48.30;97358.44;4974853;28;20705;-28
2023/07/13 01:10:17;;;;;;;1.20;1.10;;;;;;;25.64;48.33;97360.16;4944547;28;20199;-28
2023/07/13 01:12:44;;;;;;;1.00;1.00;;;;;;;25.65;48.16;97356.78;4983064;28;20223;-28
2023/07/13 01:15:36;;;;;;;1.10;1.00;;;;;;;25.65;48.49;97349.06;4983177;28;20303;-29
2023/07/13 01:18:13;;;;;;;1.20;1.10;;;;;;;25.65;48.39;97353.31;4984518;28;20200;-28
2023/07/13 01:20:39;;;;;;;1.25;1.08;;;;;;;25.64;48.34;97351.59;4959430;28;20253;-28
2023/07/13 01:23:07;;;;;;;1.20;1.10;;;;;;;25.63;48.34;97350.72;4992924;28;20226;-29
2023/07/13 01:25:35;;;;;;;0.87;0.87;;;;;;;25.64;48.57;97352.44;4983858;28;20222;-28
2023/07/13 01:28:03;;;;;;;1.10;1.10;;;;;;;25.62;48.38;97341.31;4981141;28;20255;-30
2023/07/13 01:30:29;;;;;;;0.90;0.90;;;;;;;25.64;48.25;97352.44;4985740;28;20253;-29
2023/07/13 01:32:56;;;;;;;1.17;1.10;;;;;;;25.64;48.55;97344.72;4970320;28;20235;-28
2023/07/13 01:35:25;;;;;;;1.10;1.10;;;;;;;25.62;48.63;97341.31;4986804;28;20333;-29
2023/07/13 01:37:51;;;;;;;1.10;1.10;;;;;;;25.64;48.45;97342.16;4987218;28;20196;-31
2023/07/13 01:40:18;;;;;;;1.40;1.00;;;;;;;25.65;48.29;97340.47;4986659;28;20203;-29
2023/07/13 01:42:44;;;;;;;1.23;1.13;;;;;;;25.64;48.35;97339.59;4965257;28;20199;-29
2023/07/13 01:45:11;;;;;;;1.00;1.00;;;;;;;25.64;48.34;97329.28;4979608;28;20231;-29
2023/07/13 01:47:38;;;;;;;1.00;1.00;;;;;;;25.65;48.20;97319.88;4990993;28;20210;-28
2023/07/13 01:50:05;;;;;;;1.00;1.00;;;;;;;25.63;48.07;97309.56;4992345;28;20222;-30
2023/07/13 01:52:31;;;;;;;1.10;1.10;;;;;;;25.62;48.12;97307.84;4984341;28;20227;-29
2023/07/13 01:54:58;;;;;;;0.93;0.93;;;;;;;25.64;48.33;97307.84;4979413;28;20251;-29
2023/07/13 01:57:24;;;;;;;1.40;1.10;;;;;;;25.64;48.23;97308.69;4985942;28;20195;-28
2023/07/13 01:59:51;;;;;;;1.27;1.17;;;;;;;25.64;48.42;97302.69;4977204;28;20590;-28
2023/07/13 02:02:17;;;;;;;1.20;1.10;;;;;;;25.64;48.30;97302.69;4978711;28;20274;-30
2023/07/13 02:04:44;;;;;;;1.00;1.00;;;;;;;25.63;48.21;97303.53;4985019;28;20222;-28
2023/07/13 02:07:11;;;;;;;1.20;1.20;;;;;;;25.63;48.22;97301.84;4980313;28;20199;-28
2023/07/13 02:09:37;;;;;;;1.00;1.00;;;;;;;25.63;48.55;97306.09;4989064;28;20346;-28
2023/07/13 02:12:05;;;;;;;1.00;1.00;;;;;;;25.64;48.64;97310.44;4985516;28;20230;-29
2023/07/13 02:14:31;;;;;;;1.00;1.00;;;;;;;25.62;48.59;97305.25;4989677;28;20207;-30
2023/07/13 02:16:58;;;;;;;1.07;1.03;;;;;;;25.62;48.34;97301.81;4986143;28;20267;-28
2023/07/13 02:19:24;;;;;;;1.00;1.00;;;;;;;25.62;48.43;97310.41;4987655;28;20203;-34
2023/07/13 02:21:51;;;;;;;1.00;0.90;;;;;;;25.62;48.44;97312.97;4973215;28;20717;-29
2023/07/13 02:24:19;;;;;;;0.97;0.97;;;;;;;25.62;48.30;97319.84;4988702;28;20195;-28
2023/07/13 02:26:45;;;;;;;1.30;1.00;;;;;;;25.61;48.47;97325.84;4989785;28;20241;-28
2023/07/13 02:29:12;;;;;;;0.90;0.90;;;;;;;25.62;48.73;97314.69;4986301;28;20227;-28
2023/07/13 02:31:39;;;;;;;1.00;1.00;;;;;;;25.61;48.47;97318.13;4984988;28;20227;-28
2023/07/13 02:34:05;;;;;;;1.07;1.07;;;;;;;25.61;48.30;97325.84;4987620;28;20682;-29
2023/07/13 02:36:32;;;;;;;1.00;1.00;;;;;;;25.61;48.51;97328.41;4982037;28;20617;-29
2023/07/13 02:39:01;;;;;;;0.90;0.90;;;;;;;25.61;48.37;97334.41;4986877;28;20200;-29
2023/07/13 02:41:27;;;;;;;1.00;1.00;;;;;;;25.61;48.44;97338.72;4992319;28;20237;-29
2023/07/13 02:43:54;;;;;;;1.00;1.00;;;;;;;25.62;48.82;97337.84;4987743;28;20210;-30
2023/07/13 02:46:20;;;;;;;1.30;1.20;;;;;;;25.61;48.66;97346.44;4992513;28;20226;-28
2023/07/13 02:48:47;;;;;;;1.10;1.10;;;;;;;25.62;48.66;97355.88;4980264;28;20210;-29
2023/07/13 02:51:14;;;;;;;1.00;1.00;;;;;;;25.62;48.67;97350.72;4982179;28;20194;-29
2023/07/13 02:53:41;;;;;;;0.90;0.90;;;;;;;25.61;48.71;97357.56;4990930;28;20253;-29
2023/07/13 02:56:07;;;;;;;1.07;1.07;;;;;;;25.61;48.50;97360.13;4988177;28;20273;-28
2023/07/13 02:58:36;;;;;;;1.00;1.00;;;;;;;25.62;48.67;97366.16;4976561;28;20208;-28
2023/07/13 03:01:06;;;;;;;0.97;0.97;;;;;;;25.62;48.51;97358.44;4977362;28;20250;-29
2023/07/13 03:03:33;;;;;;;0.90;0.90;;;;;;;25.61;48.68;97370.44;4976625;28;20203;-29
2023/07/13 03:06:01;;;;;;;0.80;0.80;;;;;;;25.61;48.72;97361.88;4981235;28;20219;-28
2023/07/13 03:08:28;;;;;;;0.97;0.97;;;;;;;25.60;48.63;97373.00;4991203;28;20674;-28
2023/07/13 03:11:06;;;;;;;1.10;1.03;;;;;;;25.58;48.57;97370.41;4988051;28;20207;-29
2023/07/13 03:13:33;;;;;;;1.00;1.00;;;;;;;25.60;48.50;97373.88;4978598;28;20271;-34
2023/07/13 03:16:00;;;;;;;1.10;1.10;;;;;;;25.60;48.74;97380.72;4988099;28;20772;-29
2023/07/13 03:18:27;;;;;;;0.97;0.97;;;;;;;25.60;48.78;97386.72;4987116;28;20202;-28
2023/07/13 03:20:53;;;;;;;1.10;1.00;;;;;;;25.59;48.79;97384.16;4984738;28;20206;-29
2023/07/13 03:23:20;;;;;;;1.10;1.10;;;;;;;25.60;48.48;97393.59;4987305;28;20195;-28
2023/07/13 03:25:47;;;;;;;0.90;0.90;;;;;;;25.60;48.93;97391.88;4974169;28;20318;-28
2023/07/13 03:28:14;;;;;;;0.97;0.97;;;;;;;25.61;48.82;97392.75;4984855;28;20203;-29
2023/07/13 03:30:41;;;;;;;0.80;0.80;;;;;;;25.60;48.84;97391.00;4988819;28;20211;-28
2023/07/13 03:33:08;;;;;;;1.00;1.00;;;;;;;25.59;48.53;97385.03;4970936;28;20223;-28
2023/07/13 03:35:35;;;;;;;1.10;1.10;;;;;;;25.60;48.61;97386.72;4989906;28;20285;-28
2023/07/13 03:38:01;;;;;;;0.90;0.90;;;;;;;25.61;48.52;97395.34;4983576;28;20237;-28
2023/07/13 03:40:28;;;;;;;1.10;1.10;;;;;;;25.60;48.62;97393.59;4985043;28;20207;-28
2023/07/13 03:42:54;;;;;;;1.00;1.00;;;;;;;25.58;49.02;97397.88;4991262;28;20647;-28
2023/07/13 03:45:21;;;;;;;1.00;1.00;;;;;;;25.61;48.93;97408.19;4989966;28;20226;-29
2023/07/13 03:47:48;;;;;;;1.00;1.00;;;;;;;25.62;48.66;97407.34;4984138;28;20242;-28
2023/07/13 03:50:15;;;;;;;0.97;0.97;;;;;;;25.61;48.78;97403.06;4987024;28;20202;-28
2023/07/13 03:52:41;;;;;;;1.07;1.07;;;;;;;25.60;49.03;97399.59;4980263;28;20218;-29
2023/07/13 03:55:08;;;;;;;1.10;1.10;;;;;;;25.60;48.87;97402.19;4975328;28;20234;-29
2023/07/13 03:57:35;;;;;;;1.10;1.10;;;;;;;25.60;49.17;97396.16;4976387;28;20286;-28
2023/07/13 04:00:06;;;;;;;1.17;1.10;;;;;;;25.60;48.82;97397.03;4974924;28;20218;-33
2023/07/13 04:02:33;;;;;;;1.05;0.95;;;;;;;25.59;49.17;97397.00;4975717;28;20294;-29
2023/07/13 04:04:59;;;;;;;1.23;1.13;;;;;;;25.60;49.01;97386.72;4979596;28;20231;-29
2023/07/13 04:07:26;;;;;;;1.13;1.05;;;;;;;25.60;49.00;97384.16;4975793;28;20211;-29
2023/07/13 04:09:53;;;;;;;1.10;1.10;;;;;;;25.60;48.85;97391.88;4974081;28;20212;-29
2023/07/13 04:12:19;;;;;;;0.98;0.98;;;;;;;25.60;49.00;97388.44;4976730;28;20258;-29
2023/07/13 04:14:46;;;;;;;0.85;0.85;;;;;;;25.60;49.22;97396.16;4973868;28;20226;-28
2023/07/13 04:17:12;;;;;;;1.10;1.00;;;;;;;25.56;48.88;97392.72;4976427;28;20636;-29
2023/07/13 04:19:39;;;;;;;1.73;1.10;;;;;;;25.58;49.13;97397.88;4975999;28;20234;-29
2023/07/13 04:22:06;;;;;;;1.10;1.00;;;;;;;25.58;49.06;97397.88;4973673;28;20636;-31
2023/07/13 04:24:32;;;;;;;1.37;1.20;;;;;;;25.59;49.02;97405.59;4980386;28;20203;-28
2023/07/13 04:27:00;;;;;;;3.72;1.38;;;;;;;25.59;49.36;97402.16;4982865;28;20261;-28
2023/07/13 04:29:27;;;;;;;1.65;1.10;;;;;;;25.57;49.52;97415.00;4985346;28;20202;-28
2023/07/13 04:31:53;;;;;;;1.07;1.00;;;;;;;25.57;49.26;97420.16;4991629;28;20226;-29
2023/07/13 04:34:20;;;;;;;1.97;1.20;;;;;;;25.58;49.40;97418.47;4988650;28;20203;-29
2023/07/13 04:36:46;;;;;;;1.10;1.10;;;;;;;25.59;49.28;97422.75;4985808;28;20203;-28
2023/07/13 04:39:13;;;;;;;1.27;1.17;;;;;;;25.57;49.12;97421.84;4988088;28;20199;-28
2023/07/13 04:41:40;;;;;;;1.33;1.20;;;;;;;25.58;49.22;97427.03;4987863;28;20253;-29
2023/07/13 04:44:06;;;;;;;1.33;1.23;;;;;;;25.58;49.27;97424.44;4990773;28;20263;-29
2023/07/13 04:46:33;;;;;;;1.50;1.20;;;;;;;25.60;48.99;97427.03;4990978;28;20234;-29
2023/07/13 04:49:00;;;;;;;1.27;1.10;;;;;;;25.56;48.99;97433.88;4982354;28;20199;-29
2023/07/13 04:51:27;;;;;;;2.97;1.17;;;;;;;25.58;49.32;97439.06;4992600;28;20203;-31
2023/07/13 04:53:54;;;;;;;1.20;1.10;;;;;;;25.58;49.03;97436.47;4984707;28;20263;-28
2023/07/13 04:56:26;;;;;;;1.10;1.00;;;;;;;25.58;49.08;97446.78;4989701;28;20224;-28
2023/07/13 04:58:53;;;;;;;1.30;1.20;;;;;;;25.58;49.29;97454.50;4986921;28;20222;-30
2023/07/13 05:01:20;;;;;;;1.37;1.27;;;;;;;25.58;49.42;97460.47;4991163;28;20206;-28
2023/07/13 05:03:46;;;;;;;1.40;1.30;;;;;;;25.59;49.01;97467.38;4989491;28;20206;-28
2023/07/13 05:06:13;;;;;;;1.48;1.10;;;;;;;25.40;49.49;97433.69;4984376;28;20654;-28
2023/07/13 05:08:40;;;;;;;1.10;1.10;;;;;;;25.58;49.43;97462.22;4988443;28;20211;-28
2023/07/13 05:11:07;;;;;;;1.00;1.00;;;;;;;25.60;49.31;97468.22;4984486;28;20199;-28
2023/07/13 05:13:34;;;;;;;1.03;1.03;;;;;;;25.59;49.32;97475.09;4992686;28;20219;-29
2023/07/13 05:16:04;;;;;;;2.92;0.95;;;;;;;25.59;49.12;97464.81;4988335;28;20224;-29
2023/07/13 05:18:31;;;;;;;1.77;1.30;;;;;;;25.60;49.26;97475.94;4987872;28;20207;-28
2023/07/13 05:21:07;;;;;;;2.03;1.17;;;;;;;25.59;49.18;97475.09;4982508;28;20229;-28
2023/07/13 05:23:35;;;;;;;1.10;1.10;;;;;;;25.56;49.14;97477.63;4973836;28;20663;-28
2023/07/13 05:26:02;;;;;;;1.40;1.20;;;;;;;25.57;49.29;97479.34;4987283;28;20223;-29
2023/07/13 05:28:32;;;;;;;1.50;1.10;;;;;;;25.59;49.28;97482.81;4982016;28;20203;-29
2023/07/13 05:30:59;;;;;;;1.17;1.10;;;;;;;25.59;49.13;97485.41;4986960;28;20233;-28
2023/07/13 05:33:26;;;;;;;1.30;1.20;;;;;;;25.58;49.42;97483.66;4985781;28;20235;-28
2023/07/13 05:35:53;;;;;;;1.13;1.13;;;;;;;25.58;48.97;97483.66;4978435;28;20231;-29
2023/07/13 05:38:19;;;;;;;1.60;1.37;;;;;;;25.58;48.72;97485.38;4981930;28;20203;-28
2023/07/13 05:40:46;;;;;;;1.30;1.20;;;;;;;25.54;48.98;97481.88;4983568;28;20262;-29
2023/07/13 05:43:13;;;;;;;1.20;1.20;;;;;;;25.58;49.34;97485.38;4989298;28;20203;-28
2023/07/13 05:45:40;;;;;;;3.20;1.13;;;;;;;25.58;49.29;97483.66;4987121;28;20236;-28
2023/07/13 05:48:06;;;;;;;1.30;1.20;;;;;;;25.57;49.05;97484.50;4985021;28;20261;-29
2023/07/13 05:50:33;;;;;;;1.40;1.30;;;;;;;25.58;49.29;97482.81;4992224;28;20330;-28
2023/07/13 05:53:00;;;;;;;1.30;1.20;;;;;;;25.56;49.22;97490.50;4989378;28;20697;-29
2023/07/13 05:55:26;;;;;;;1.43;1.33;;;;;;;25.56;49.19;97490.50;4991402;28;20704;-29
2023/07/13 05:57:53;;;;;;;1.10;1.10;;;;;;;25.56;49.34;97493.06;4971184;28;20203;-29
2023/07/13 06:00:20;;;;;;;1.57;1.20;;;;;;;25.56;49.02;97485.34;4970924;28;20562;-30
2023/07/13 06:02:46;;;;;;;1.37;1.17;;;;;;;25.56;49.35;97487.06;4984070;28;20202;-28
2023/07/13 06:05:13;;;;;;;1.57;1.30;;;;;;;25.54;48.99;97484.47;4981626;28;20581;-28
2023/07/13 06:07:41;;;;;;;1.23;1.13;;;;;;;25.55;49.27;97493.06;4990471;28;20580;-28
2023/07/13 06:10:07;;;;;;;1.17;1.10;;;;;;;25.55;49.02;97488.75;4984416;28;20207;-29
2023/07/13 06:12:34;;;;;;;1.00;1.00;;;;;;;25.54;48.88;97494.75;4989676;28;20219;-28
2023/07/13 06:15:01;;;;;;;1.10;1.10;;;;;;;25.54;48.98;97497.34;4980556;28;20214;-28
2023/07/13 06:17:27;;;;;;;1.20;1.10;;;;;;;25.54;49.08;97499.91;4984189;28;20583;-28
2023/07/13 06:19:54;;;;;;;1.70;1.27;;;;;;;25.54;49.04;97504.19;4984410;28;20246;-28
2023/07/13 06:22:21;;;;;;;1.43;1.33;;;;;;;25.53;49.10;97507.59;4980863;28;20204;-29
2023/07/13 06:24:47;;;;;;;1.20;1.10;;;;;;;25.54;49.43;97499.03;4991214;28;20229;-29
2023/07/13 06:27:14;;;;;;;1.40;1.30;;;;;;;25.50;49.39;97493.00;4981698;28;20631;-28
2023/07/13 06:29:41;;;;;;;1.33;1.23;;;;;;;25.52;49.10;97500.75;4982609;28;20207;-28
2023/07/13 06:32:08;;;;;;;1.30;1.20;;;;;;;25.54;49.14;97497.34;4990339;28;20211;-28
2023/07/13 06:34:34;;;;;;;1.57;1.47;;;;;;;25.53;48.98;97495.63;4988153;28;20209;-28
2023/07/13 06:37:01;;;;;;;1.25;1.15;;;;;;;25.55;49.37;97500.78;4983284;28;20239;-29
2023/07/13 06:39:28;;;;;;;1.20;1.20;;;;;;;25.54;49.42;97502.47;4986059;28;20725;-29
2023/07/13 06:41:54;;;;;;;1.07;1.07;;;;;;;25.54;49.09;97501.59;4988322;28;20669;-29
2023/07/13 06:44:21;;;;;;;1.13;1.13;;;;;;;25.54;49.22;97501.59;4987336;28;20203;-29
2023/07/13 06:46:47;;;;;;;1.20;1.20;;;;;;;25.54;49.37;97504.19;4987602;28;20277;-28
2023/07/13 06:49:14;;;;;;;1.30;1.20;;;;;;;25.54;49.11;97511.91;4989920;28;20207;-29
2023/07/13 06:51:41;;;;;;;1.40;1.30;;;;;;;25.54;48.95;97525.63;4990778;28;20261;-28
2023/07/13 06:54:07;;;;;;;1.30;1.20;;;;;;;25.54;49.38;97525.63;4988471;28;20248;-28
2023/07/13 06:56:34;;;;;;;1.07;1.03;;;;;;;25.54;49.03;97520.50;4980172;28;20222;-36
2023/07/13 06:59:01;;;;;;;1.13;1.10;;;;;;;25.54;49.08;97535.06;4981270;28;20211;-29
2023/07/13 07:01:27;;;;;;;1.30;1.20;;;;;;;25.53;49.07;97534.22;4986473;28;20215;-29
2023/07/13 07:03:54;;;;;;;1.20;1.10;;;;;;;25.54;49.35;97535.06;4981022;28;20207;-29
2023/07/13 07:06:23;;;;;;;1.10;1.10;;;;;;;25.54;49.07;97530.78;4984876;28;20231;-30
2023/07/13 07:08:50;;;;;;;1.03;1.03;;;;;;;25.54;49.22;97543.66;4980039;28;20678;-28
2023/07/13 07:11:19;;;;;;;1.20;1.10;;;;;;;25.50;49.11;97546.16;4988803;28;20616;-30
2023/07/13 07:13:46;;;;;;;1.10;1.10;;;;;;;25.51;48.94;97551.34;4990156;28;20604;-28
2023/07/13 07:16:12;;;;;;;1.30;1.20;;;;;;;25.54;49.47;97568.50;4990033;28;20223;-28
2023/07/13 07:18:39;;;;;;;2.60;1.00;;;;;;;25.49;49.16;97547.03;4984826;28;20630;-28
2023/07/13 07:21:05;;;;;;;1.30;1.17;;;;;;;25.53;49.23;97546.22;4987197;28;20647;-28
2023/07/13 07:23:32;;;;;;;1.00;1.00;;;;;;;25.52;48.96;97553.06;4987025;28;20199;-28
2023/07/13 07:25:59;;;;;;;1.23;1.13;;;;;;;25.52;49.25;97558.19;4989766;28;20713;-28
2023/07/13 07:28:28;;;;;;;1.27;1.17;;;;;;;25.53;48.93;97561.66;4989021;28;20210;-29
2023/07/13 07:31:09;;;;;;;1.10;1.10;;;;;;;25.51;49.16;97553.03;4982092;28;20678;-29
2023/07/13 07:33:39;;;;;;;1.20;1.03;;;;;;;25.52;49.45;97558.19;4986666;28;20226;-28
2023/07/13 07:36:05;;;;;;;0.90;0.90;;;;;;;25.52;49.00;97562.50;4984424;28;20572;-29
2023/07/13 07:38:35;;;;;;;1.00;1.00;;;;;;;25.53;49.16;97566.78;4980291;28;20274;-28
2023/07/13 07:41:03;;;;;;;1.10;1.10;;;;;;;25.53;49.22;97569.38;4979315;28;20211;-28
2023/07/13 07:43:33;;;;;;;0.90;0.90;;;;;;;25.53;49.03;97570.25;4986390;28;20646;-28
2023/07/13 07:45:59;;;;;;;1.10;1.10;;;;;;;25.53;49.08;97570.25;4977689;28;20226;-28
2023/07/13 07:48:29;;;;;;;1.00;1.00;;;;;;;25.53;49.08;97565.09;4987709;28;20588;-29
2023/07/13 07:50:55;;;;;;;1.10;1.10;;;;;;;25.53;48.93;97567.69;4986229;28;20244;-28
2023/07/13 07:53:22;;;;;;;1.20;1.20;;;;;;;25.53;49.09;97583.13;4979741;28;20225;-28
2023/07/13 07:55:49;;;;;;;0.90;0.90;;;;;;;25.53;49.23;97585.69;4982959;28;20215;-28
2023/07/13 07:58:18;;;;;;;1.03;1.03;;;;;;;25.29;49.30;97544.13;4984205;28;20636;-29
2023/07/13 08:00:48;;;;;;;1.10;1.10;;;;;;;25.53;49.29;97577.97;4982861;28;20262;-29
2023/07/13 08:03:17;;;;;;;1.00;1.00;;;;;;;25.54;48.95;97582.25;4977741;28;20203;-28
2023/07/13 08:05:47;;;;;;;1.20;1.10;;;;;;;25.52;48.98;97571.06;4981593;28;20664;-33
2023/07/13 08:08:34;;;;;;;1.27;1.17;;;;;;;25.53;49.36;97583.13;4990186;28;20203;-29
2023/07/13 08:11:07;;;;;;;0.93;0.93;;;;;;;25.52;48.93;97589.09;4984932;28;20195;-28
2023/07/13 08:13:36;;;;;;;1.00;1.00;;;;;;;25.53;49.17;97593.41;4987599;28;20234;-28
2023/07/13 08:16:06;;;;;;;1.10;1.10;;;;;;;25.54;49.38;97595.13;4987629;28;20219;-29
2023/07/13 08:18:33;;;;;;;1.30;1.10;;;;;;;25.53;49.25;97593.41;4986410;28;20203;-28
2023/07/13 08:21:06;;;;;;;1.10;1.10;;;;;;;25.54;48.84;97589.09;4989805;28;20584;-29
2023/07/13 08:23:33;;;;;;;1.20;1.10;;;;;;;25.54;49.05;97586.53;4987478;28;20471;-28
2023/07/13 08:26:01;;;;;;;1.00;1.00;;;;;;;25.54;49.30;97596.81;4992338;28;20312;-32
2023/07/13 08:28:27;;;;;;;1.08;1.08;;;;;;;25.53;48.98;97592.53;4992126;28;20198;-28
2023/07/13 08:30:54;;;;;;;1.00;1.00;;;;;;;25.53;49.39;97595.97;4991851;28;20199;-31
2023/07/13 08:33:24;;;;;;;1.73;1.63;;;;;;;25.55;51.14;97602.00;4989944;28;20219;-28
2023/07/13 08:35:51;;;;;;;1.40;1.30;;;;;;;25.55;51.00;97596.00;4983176;28;20281;-28
2023/07/13 08:38:17;;;;;;;1.93;1.50;;;;;;;25.52;50.74;97583.94;4988147;28;20218;-29
2023/07/13 08:40:53;;;;;;;1.60;1.50;;;;;;;25.54;50.59;97595.13;4986961;28;20204;-29
2023/07/13 08:43:30;;;;;;;5.00;1.45;;;;;;;25.52;50.52;97589.09;4990042;28;20637;-28
2023/07/13 08:46:02;;;;;;;7.37;1.70;;;;;;;25.54;50.27;97594.25;4993936;23;20261;-27
2023/07/13 08:48:33;;;;;;;2.43;1.53;;;;;;;25.53;50.50;97592.53;4990971;28;20211;-35
2023/07/13 08:51:12;;;;;;;2.00;1.40;;;;;;;25.53;50.81;97597.69;4990088;28;20203;-27
2023/07/13 08:53:48;;;;;;;1.60;1.40;;;;;;;25.53;50.92;97597.69;4975877;28;20287;-27
2023/07/13 08:56:23;;;;;;;1.77;1.67;;;;;;;25.53;50.74;97603.69;4985078;28;20285;-30
2023/07/13 08:58:54;;;;;;;2.70;1.50;;;;;;;25.53;50.96;97606.28;4984744;28;20202;-31
2023/07/13 09:01:43;;;;;;;1.53;1.43;;;;;;;25.53;50.60;97601.13;4965950;28;20204;-27
2023/07/13 09:04:22;;;;;;;3.80;1.70;;;;;;;25.52;50.92;97607.09;4966910;28;20291;-27
2023/07/13 09:06:54;;;;;;;2.83;1.67;;;;;;;25.52;50.92;97609.66;4967638;28;20251;-27
2023/07/13 09:09:26;;;;;;;1.93;1.70;;;;;;;25.52;50.97;97614.81;4965899;28;20298;-27
2023/07/13 09:12:01;;;;;;;1.50;1.40;;;;;;;25.46;50.69;97608.72;4967656;28;20203;-28
2023/07/13 09:14:52;;;;;;;1.40;1.30;;;;;;;25.52;50.72;97607.09;4953353;28;20230;-38
2023/07/13 09:17:36;;;;;;;2.47;1.27;;;;;;;25.51;51.09;97607.06;4971479;28;20227;-27
2023/07/13 09:20:12;;;;;;;3.87;1.30;;;;;;;25.51;51.05;97601.94;4968328;28;20295;-27
2023/07/13 09:22:39;;;;;;;2.80;1.50;;;;;;;25.52;51.05;97611.41;4970280;28;20199;-27
2023/07/13 09:25:19;;;;;;;1.40;1.30;;;;;;;25.52;50.81;97604.53;4970930;28;20365;-27
2023/07/13 09:27:46;;;;;;;1.50;1.40;;;;;;;25.52;50.83;97613.97;4968448;28;20436;-27
2023/07/13 09:30:15;;;;;;;1.60;1.50;;;;;;;25.51;50.74;97605.38;4969384;28;20737;-27
2023/07/13 09:32:44;;;;;;;1.60;1.50;;;;;;;25.51;50.86;97604.50;4971761;28;20929;-27
2023/07/13 09:35:12;;;;;;;1.50;1.40;;;;;;;25.51;51.13;97600.22;4966009;28;20220;-27
2023/07/13 09:37:41;;;;;;;1.50;1.40;;;;;;;25.52;51.00;97591.66;4965811;28;20207;-32
2023/07/13 09:40:12;;;;;;;1.47;1.37;;;;;;;25.52;51.04;97606.25;4970847;28;20210;-27
2023/07/13 09:42:38;;;;;;;1.30;1.20;;;;;;;25.52;51.03;97601.94;4964062;28;20208;-27
2023/07/13 09:45:09;;;;;;;1.63;1.53;;;;;;;25.52;50.98;97604.53;4973603;28;20242;-28
2023/07/13 09:47:39;;;;;;;1.43;1.33;;;;;;;25.53;50.88;97603.69;4969834;28;20672;-31
2023/07/13 09:50:09;;;;;;;3.57;1.33;;;;;;;25.54;51.16;97612.25;4971455;28;20234;-27
2023/07/13 09:52:44;;;;;;;1.40;1.30;;;;;;;25.53;51.32;97621.72;4972160;28;20736;-27
2023/07/13 09:55:34;;;;;;;1.70;1.20;;;;;;;25.54;50.71;97607.13;4971741;28;20626;-27
2023/07/13 09:58:22;;;;;;;2.80;1.40;;;;;;;25.54;50.72;97617.41;4973266;28;20205;-27
2023/07/13 10:00:55;;;;;;;1.40;1.30;;;;;;;25.55;50.43;97621.75;4969651;28;20203;-27
2023/07/13 10:03:25;;;;;;;1.40;1.30;;;;;;;25.55;50.52;97624.31;4970362;28;20206;-27
2023/07/13 10:05:52;;;;;;;5.27;1.70;;;;;;;25.54;50.34;97618.28;4971295;28;20302;-27
2023/07/13 10:08:27;;;;;;;1.50;1.40;;;;;;;25.53;50.77;97613.13;4971010;28;20204;-27
2023/07/13 10:11:02;;;;;;;1.53;1.37;;;;;;;25.53;50.72;97619.16;4970539;28;20254;-31
2023/07/13 10:13:36;;;;;;;1.50;1.40;;;;;;;25.48;50.23;97613.06;4963124;28;20223;-27
2023/07/13 10:16:05;;;;;;;1.33;1.23;;;;;;;25.52;50.13;97616.53;4981216;28;20706;-27
2023/07/13 10:18:43;;;;;;;1.40;1.30;;;;;;;25.52;50.22;97624.28;4972123;28;20211;-30
2023/07/13 10:21:16;;;;;;;1.40;1.30;;;;;;;25.51;50.31;97614.78;4984413;28;20203;-27
2023/07/13 10:23:51;;;;;;;2.67;1.40;;;;;;;25.51;50.34;97625.09;4965828;28;20219;-27
2023/07/13 10:26:24;;;;;;;1.50;1.40;;;;;;;25.51;50.10;97625.09;4967000;28;20227;-28
2023/07/13 10:28:53;;;;;;;1.30;1.20;;;;;;;25.52;50.52;97632.00;4966997;28;20208;-27
2023/07/13 10:31:19;;;;;;;1.23;1.20;;;;;;;25.43;50.54;97612.09;4968188;28;20204;-28
2023/07/13 10:33:46;;;;;;;1.00;1.00;;;;;;;25.50;50.21;97616.53;4950509;28;20222;-27
2023/07/13 10:36:32;;;;;;;1.40;1.30;;;;;;;25.53;50.16;97618.28;4978271;28;20618;-27
2023/07/13 10:39:00;;;;;;;1.52;1.42;;;;;;;25.52;50.45;97617.38;4971781;28;20199;-27
2023/07/13 10:41:27;;;;;;;1.30;1.20;;;;;;;25.51;50.28;97614.78;4968907;28;20211;-34
2023/07/13 10:43:55;;;;;;;1.17;1.17;;;;;;;25.52;50.17;97627.69;4957468;28;20204;-27
2023/07/13 10:46:23;;;;;;;1.40;1.30;;;;;;;25.52;50.39;97627.69;4967856;28;20241;-28
2023/07/13 10:48:52;;;;;;;1.33;1.30;;;;;;;25.53;50.29;97623.41;4968645;28;20207;-29
2023/07/13 10:51:20;;;;;;;1.50;1.40;;;;;;;25.52;50.08;97625.13;4965764;28;20218;-27
2023/07/13 10:53:47;;;;;;;1.30;1.20;;;;;;;25.53;50.02;97626.00;4972171;28;20307;-27
2023/07/13 10:56:27;;;;;;;1.33;1.23;;;;;;;25.51;50.26;97618.25;4969495;28;20227;-27
2023/07/13 10:59:09;;;;;;;1.10;1.10;;;;;;;25.52;49.81;97611.41;4966422;28;20212;-27
2023/07/13 11:01:40;;;;;;;1.17;1.17;;;;;;;25.50;49.85;97613.94;4968648;28;20258;-28
2023/07/13 11:04:08;;;;;;;1.47;1.37;;;;;;;25.52;50.37;97609.66;4969742;28;20241;-27
2023/07/13 11:06:39;;;;;;;1.40;1.30;;;;;;;25.52;49.77;97621.69;4960613;28;20228;-27
2023/07/13 11:09:31;;;;;;;1.10;1.10;;;;;;;25.52;50.12;97617.38;4968638;28;20243;-28
2023/07/13 11:12:02;;;;;;;1.30;1.20;;;;;;;25.53;49.94;97615.69;4970400;28;20213;-27
2023/07/13 11:14:30;;;;;;;1.40;1.30;;;;;;;25.52;50.26;97607.09;4984277;28;20226;-27
2023/07/13 11:16:56;;;;;;;1.30;1.20;;;;;;;25.51;50.19;97602.81;4970412;28;20231;-27
2023/07/13 11:19:27;;;;;;;1.20;1.10;;;;;;;25.52;50.17;97604.53;4968667;28;20230;-27
2023/07/13 11:22:11;;;;;;;1.20;1.10;;;;;;;25.54;50.07;97609.69;4976772;28;20754;-27
2023/07/13 11:24:59;;;;;;;2.50;1.30;;;;;;;25.53;49.40;97602.81;4963393;28;20230;-27
2023/07/13 11:27:45;;;;;;;1.23;1.23;;;;;;;25.53;49.57;97602.81;4968525;28;20310;-27
2023/07/13 11:30:20;;;;;;;1.20;1.10;;;;;;;25.54;49.98;97605.41;4960476;28;20230;-27
2023/07/13 11:33:05;;;;;;;1.23;1.13;;;;;;;25.54;50.11;97618.28;4970043;28;20207;-27
2023/07/13 11:35:34;;;;;;;1.23;1.20;;;;;;;25.54;49.89;97614.84;4966705;28;20231;-27
2023/07/13 11:38:02;;;;;;;1.17;1.10;;;;;;;25.54;49.84;97608.00;4968861;28;20199;-35
2023/07/13 11:40:29;;;;;;;2.30;1.20;;;;;;;25.54;49.94;97609.69;4948371;28;20250;-26
2023/07/13 11:43:01;;;;;;;1.20;1.20;;;;;;;25.54;49.87;97600.28;4954176;28;20203;-27